Time;durP1;ratioP1;P1;durP2;ratioP2;P2;SDS_P1;SDS_P2;PMS_P1;PMS_P2;Temp;Humidity;BMP_temperature;BMP_pressure;BME280_temperature;BME280_humidity;BME280_pressure;Samples;Min_cycle;Max_cycle;Signal;HPM_P1;HPM_P2
2022/07/04 00:00:47;;;;;;;;;0.00;0.00;;;;;19.54;44.04;101518.09;5031923;28;45395;-45
2022/07/04 00:03:13;;;;;;;;;0.50;0.50;;;;;19.47;43.86;101515.84;5015591;28;45530;-45
2022/07/04 00:05:39;;;;;;;;;1.00;0.25;;;;;19.36;43.77;101513.75;5029958;28;45966;-46
2022/07/04 00:08:04;;;;;;;;;2.00;0.00;;;;;19.27;44.14;101515.09;5034735;28;45556;-45
2022/07/04 00:10:30;;;;;;;;;0.75;0.75;;;;;19.19;44.30;101516.41;5044087;28;47647;-45
2022/07/04 00:12:56;;;;;;;;;0.00;0.00;;;;;19.12;44.96;101518.50;5028960;28;45374;-48
2022/07/04 00:15:22;;;;;;;;;2.00;1.00;;;;;19.07;45.25;101517.88;5030783;28;46525;-46
2022/07/04 00:17:47;;;;;;;;;1.00;1.00;;;;;19.06;45.30;101524.13;5028206;28;45508;-47
2022/07/04 00:20:12;;;;;;;;;1.00;1.00;;;;;19.06;45.30;101519.66;5031788;28;67532;-48
2022/07/04 00:22:38;;;;;;;;;0.25;0.25;;;;;19.07;45.01;101518.75;5036073;28;45261;-45
2022/07/04 00:25:04;;;;;;;;;2.00;1.00;;;;;19.08;44.54;101516.94;5030995;28;65233;-46
2022/07/04 00:27:29;;;;;;;;;0.50;0.50;;;;;19.07;44.70;101521.41;5028696;28;45683;-46
2022/07/04 00:29:55;;;;;;;;;1.00;1.00;;;;;19.05;44.89;101523.28;5031561;28;66839;-47
2022/07/04 00:32:21;;;;;;;;;2.25;2.00;;;;;19.02;45.21;101526.06;5030945;28;70926;-46
2022/07/04 00:34:46;;;;;;;;;1.50;0.00;;;;;19.01;45.24;101519.03;5029585;28;47088;-47
2022/07/04 00:37:11;;;;;;;;;2.00;1.00;;;;;19.00;45.16;101521.75;5031814;28;60432;-47
2022/07/04 00:39:37;;;;;;;;;1.00;1.00;;;;;18.96;44.94;101526.38;5033643;28;60260;-52
2022/07/04 00:42:02;;;;;;;;;2.00;1.00;;;;;18.93;45.08;101523.88;5031871;28;56267;-50
2022/07/04 00:44:28;;;;;;;;;1.00;1.00;;;;;18.90;45.22;101524.88;5030159;28;47091;-48
2022/07/04 00:46:53;;;;;;;;;2.50;1.00;;;;;18.87;45.08;101527.69;5036167;28;45371;-48
2022/07/04 00:49:19;;;;;;;;;2.75;2.00;;;;;18.84;45.49;101527.84;5028717;28;45660;-46
2022/07/04 00:51:45;;;;;;;;;1.25;1.00;;;;;18.82;45.45;101521.72;5033536;28;45438;-46
2022/07/04 00:54:13;;;;;;;;;3.00;1.75;;;;;18.82;45.32;101526.19;5032519;28;46239;-50
2022/07/04 00:56:40;;;;;;;;;1.25;1.25;;;;;18.80;46.06;101528.88;5030442;28;45285;-46
2022/07/04 00:59:06;;;;;;;;;2.00;2.00;;;;;18.80;46.11;101523.56;5029447;28;45782;-48
2022/07/04 01:01:32;;;;;;;;;1.25;1.25;;;;;18.80;45.71;101520.94;5032326;28;45550;-50
2022/07/04 01:03:58;;;;;;;;;3.75;3.00;;;;;18.80;45.98;101520.94;5035612;28;46921;-45
2022/07/04 01:06:23;;;;;;;;;3.75;3.00;;;;;18.80;45.77;101531.53;5038099;28;45527;-47
2022/07/04 01:08:49;;;;;;;;;4.00;3.00;;;;;18.81;45.95;101527.09;5035787;28;45518;-51
2022/07/04 01:11:15;;;;;;;;;3.00;3.00;;;;;18.83;45.94;101525.28;5016417;28;69695;-50
2022/07/04 01:13:41;;;;;;;;;7.50;2.00;;;;;18.82;45.79;101524.38;5035499;28;48010;-47
2022/07/04 01:16:08;;;;;;;;;4.00;1.00;;;;;18.81;45.95;101530.63;5023938;28;45355;-45
2022/07/04 01:18:33;;;;;;;;;1.50;1.00;;;;;18.81;45.87;101519.16;5028955;28;45446;-47
2022/07/04 01:20:59;;;;;;;;;2.00;1.00;;;;;18.82;46.24;101528.84;5033749;28;45609;-46
2022/07/04 01:23:24;;;;;;;;;2.00;1.00;;;;;18.82;46.01;101529.69;5034288;28;45328;-48
2022/07/04 01:25:50;;;;;;;;;2.00;0.00;;;;;18.77;46.00;101529.91;5033855;28;45332;-46
2022/07/04 01:28:19;;;;;;;;;1.00;0.75;;;;;18.76;45.93;101528.19;5029412;28;65652;-45
2022/07/04 01:30:45;;;;;;;;;1.00;0.25;;;;;18.74;45.70;101516.78;5033639;28;45558;-46
2022/07/04 01:33:10;;;;;;;;;3.00;0.25;;;;;18.73;46.07;101530.13;5032704;28;46293;-50
2022/07/04 01:35:36;;;;;;;;;1.25;1.00;;;;;18.72;45.51;101531.91;5033926;28;68025;-49
2022/07/04 01:38:01;;;;;;;;;1.00;0.00;;;;;18.69;45.79;101526.75;5033790;28;45249;-45
2022/07/04 01:40:26;;;;;;;;;2.00;0.75;;;;;18.67;46.42;101525.97;5035920;28;47553;-49
2022/07/04 01:42:52;;;;;;;;;0.00;0.00;;;;;18.65;45.69;101519.91;5034390;28;67504;-46
2022/07/04 01:45:18;;;;;;;;;1.00;0.75;;;;;18.65;46.01;101522.53;5036609;28;45417;-48
2022/07/04 01:47:43;;;;;;;;;4.00;1.50;;;;;18.65;45.72;101524.34;5035944;28;45497;-47
2022/07/04 01:50:12;;;;;;;;;0.75;0.75;;;;;18.61;46.29;101526.28;5029753;28;45796;-47
2022/07/04 01:52:38;;;;;;;;;0.00;0.00;;;;;18.62;46.57;101521.84;5034807;28;46160;-50
2022/07/04 01:55:04;;;;;;;;;2.00;1.00;;;;;18.60;46.19;101524.56;5030884;28;45783;-48
2022/07/04 01:57:29;;;;;;;;;2.25;1.50;;;;;18.61;45.97;101528.94;5036192;28;45408;-48
2022/07/04 02:02:38;;;;;;;;;1.50;1.25;;;;;18.59;46.14;101518.41;5025085;28;45362;-45
2022/07/04 02:05:04;;;;;;;;;1.00;1.00;;;;;18.59;46.58;101523.69;5032887;28;55875;-47
2022/07/04 02:07:30;;;;;;;;;0.75;0.75;;;;;18.59;46.09;101514.88;5032125;28;45352;-45
2022/07/04 02:09:55;;;;;;;;;0.50;0.50;;;;;18.57;46.48;101522.03;5019651;28;46456;-45
2022/07/04 02:15:05;;;;;;;;;2.25;1.00;;;;;18.52;46.44;101516.09;5036265;28;45362;-50
2022/07/04 02:17:30;;;;;;;;;0.25;0.00;;;;;18.50;46.17;101516.19;5025157;28;45473;-46
2022/07/04 02:19:56;;;;;;;;;2.25;1.25;;;;;18.48;46.09;101504.78;5030702;28;45325;-47
2022/07/04 02:22:22;;;;;;;;;1.00;1.00;;;;;18.45;46.31;101501.41;5023469;28;45380;-51
2022/07/04 02:24:47;;;;;;;;;0.00;0.00;;;;;18.42;46.47;101507.75;5034963;28;68641;-51
2022/07/04 02:27:12;;;;;;;;;1.00;0.00;;;;;18.40;46.10;101510.47;5033353;28;45478;-46
2022/07/04 02:29:39;;;;;;;;;2.00;0.25;;;;;18.35;46.33;101511.63;5025166;28;72450;-49
2022/07/04 02:32:05;;;;;;;;;0.25;0.25;;;;;18.32;46.60;101509.97;5028089;28;46341;-50
2022/07/04 02:34:30;;;;;;;;;0.50;0.50;;;;;18.33;46.41;101508.19;5035246;28;45391;-49
2022/07/04 02:36:56;;;;;;;;;0.50;0.00;;;;;18.31;46.35;101507.38;5027888;28;60697;-50
2022/07/04 02:39:21;;;;;;;;;3.00;1.00;;;;;18.30;46.76;101508.31;5033137;28;61557;-45
2022/07/04 02:41:46;;;;;;;;;0.25;0.25;;;;;18.27;46.64;101514.59;5031121;28;71285;-46
2022/07/04 02:44:12;;;;;;;;;1.00;1.00;;;;;18.26;47.04;101514.72;5031164;28;45437;-48
2022/07/04 02:46:37;;;;;;;;;1.00;1.00;;;;;18.26;47.04;101512.06;5034155;28;45410;-47
2022/07/04 02:49:03;;;;;;;;;0.00;0.00;;;;;18.24;46.62;101516.53;5027523;28;45486;-51
2022/07/04 02:51:29;;;;;;;;;0.00;0.00;;;;;18.25;47.21;101524.44;5034121;28;46071;-51
2022/07/04 02:53:55;;;;;;;;;0.00;0.00;;;;;18.24;47.31;101522.72;5032659;28;45464;-51
2022/07/04 02:56:20;;;;;;;;;0.00;0.00;;;;;18.23;47.14;101523.63;5035888;28;45368;-48
2022/07/04 02:58:46;;;;;;;;;2.00;0.25;;;;;18.22;47.28;101524.59;5034658;28;45442;-47
2022/07/04 03:01:12;;;;;;;;;0.25;0.25;;;;;18.22;47.47;101524.59;5033089;28;70168;-49
2022/07/04 03:03:39;;;;;;;;;2.00;0.75;;;;;18.23;47.58;101530.75;5027806;28;45369;-45
2022/07/04 03:06:05;;;;;;;;;1.00;0.00;;;;;18.18;47.67;101528.28;5028526;28;45311;-46
2022/07/04 03:08:31;;;;;;;;;1.50;0.50;;;;;18.17;47.70;101527.44;5026815;28;46032;-46
2022/07/04 03:10:56;;;;;;;;;2.75;0.00;;;;;18.17;47.24;101531.88;5033251;28;68566;-47
2022/07/04 03:13:21;;;;;;;;;0.00;0.00;;;;;18.17;47.28;101534.53;5029259;28;60076;-47
2022/07/04 03:15:47;;;;;;;;;4.00;1.00;;;;;18.16;47.72;101533.66;5034015;28;45465;-49
2022/07/04 03:18:12;;;;;;;;;2.00;2.00;;;;;18.15;47.31;101537.25;5030058;28;45505;-46
2022/07/04 03:20:37;;;;;;;;;1.75;1.75;;;;;18.13;47.80;101539.13;5030073;28;76411;-47
2022/07/04 03:23:03;;;;;;;;;2.00;2.00;;;;;18.09;47.72;101542.81;5027384;28;72170;-47
2022/07/04 03:25:29;;;;;;;;;1.50;1.00;;;;;18.05;47.79;101545.69;5033408;28;45230;-45
2022/07/04 03:27:54;;;;;;;;;1.50;1.00;;;;;18.03;48.00;101545.75;5026237;28;45344;-47
2022/07/04 03:30:20;;;;;;;;;3.00;1.50;;;;;18.03;47.70;101545.75;5031956;28;46101;-46
2022/07/04 03:32:45;;;;;;;;;1.00;1.00;;;;;18.02;47.77;101544.03;5024581;28;45359;-51
2022/07/04 03:35:10;;;;;;;;;1.50;1.50;;;;;18.00;48.32;101541.44;5036275;28;46610;-45
2022/07/04 03:37:36;;;;;;;;;2.75;2.00;;;;;17.99;48.06;101538.88;5024628;28;45498;-49
2022/07/04 03:40:01;;;;;;;;;2.75;2.00;;;;;17.97;48.17;101546.91;5028456;28;69985;-48
2022/07/04 03:42:26;;;;;;;;;2.75;1.00;;;;;17.95;48.25;101545.22;5026578;28;45586;-48
2022/07/04 03:44:52;;;;;;;;;2.50;2.00;;;;;17.93;47.72;101547.94;5034923;28;59599;-49
2022/07/04 03:47:17;;;;;;;;;1.00;1.00;;;;;17.91;48.20;101541.88;5030502;28;45331;-46
2022/07/04 03:49:43;;;;;;;;;1.00;0.00;;;;;17.90;47.61;101542.81;5023686;28;54921;-46
2022/07/04 03:52:08;;;;;;;;;1.00;1.00;;;;;17.87;48.31;101539.44;5032694;28;61324;-49
2022/07/04 03:54:33;;;;;;;;;2.75;1.00;;;;;17.87;48.10;101536.78;5025783;28;57055;-48
2022/07/04 03:56:59;;;;;;;;;0.00;0.00;;;;;17.87;48.13;101535.00;5036098;28;67733;-46
2022/07/04 03:59:24;;;;;;;;;1.00;1.00;;;;;17.87;48.23;101536.78;5030792;28;73417;-47
2022/07/04 04:01:49;;;;;;;;;0.00;0.00;;;;;17.87;48.31;101534.16;5036159;28;49591;-48
2022/07/04 04:06:58;;;;;;;;;0.50;0.00;;;;;17.74;49.05;101539.94;5026429;28;45462;-46
2022/07/04 04:09:24;;;;;;;;;2.50;1.00;;;;;17.70;48.88;101537.50;5025091;28;58649;-49
2022/07/04 04:11:53;;;;;;;;;0.00;0.00;;;;;17.68;48.34;101536.72;5035714;28;45253;-45
2022/07/04 04:14:18;;;;;;;;;1.75;0.00;;;;;17.70;48.19;101546.28;5033942;28;45394;-49
2022/07/04 04:16:44;;;;;;;;;5.50;1.00;;;;;17.71;48.62;101542.72;5021894;28;63355;-48
2022/07/04 04:19:10;;;;;;;;;0.75;0.75;;;;;17.72;48.75;101551.53;5014227;28;46892;-47
2022/07/04 04:21:35;;;;;;;;;1.00;1.00;;;;;17.72;49.01;101549.72;5032852;28;45288;-50
2022/07/04 04:24:01;;;;;;;;;1.00;1.00;;;;;17.75;48.83;101559.34;5031429;28;69397;-45
2022/07/04 04:26:27;;;;;;;;;1.00;0.75;;;;;17.79;49.06;101567.06;5039316;28;45514;-49
2022/07/04 04:28:52;;;;;;;;;1.75;1.00;;;;;17.81;48.62;101559.03;5034016;28;45397;-45
2022/07/04 04:31:18;;;;;;;;;4.00;3.00;;;;;17.83;49.06;101559.88;5034649;28;59256;-48
2022/07/04 04:33:43;;;;;;;;;6.25;5.00;;;;;17.84;48.67;101567.72;5033062;28;45614;-46
2022/07/04 04:36:09;;;;;;;;;5.75;4.00;;;;;17.89;48.59;101570.22;5031519;28;45424;-45
2022/07/04 04:38:34;;;;;;;;;2.25;1.50;;;;;17.93;48.87;101563.84;5030317;28;46263;-45
2022/07/04 04:40:59;;;;;;;;;2.00;2.00;;;;;17.96;48.80;101554.91;5034672;28;59973;-45
2022/07/04 04:43:24;;;;;;;;;3.25;3.00;;;;;17.97;48.68;101553.97;5030540;28;57250;-45
2022/07/04 04:45:50;;;;;;;;;4.00;2.00;;;;;18.01;48.51;101555.56;5039500;28;63465;-44
2022/07/04 04:48:15;;;;;;;;;1.25;1.25;;;;;18.02;48.89;101559.91;5034258;28;46133;-44
2022/07/04 04:50:41;;;;;;;;;6.25;3.50;;;;;18.05;48.56;101566.88;5031608;28;52852;-46
2022/07/04 04:53:06;;;;;;;;;3.00;1.25;;;;;18.06;48.83;101560.63;5029536;28;45364;-45
2022/07/04 04:55:31;;;;;;;;;3.00;2.00;;;;;18.05;48.80;101564.22;5034928;28;73257;-46
2022/07/04 04:57:57;;;;;;;;;3.00;3.00;;;;;18.07;48.59;101557.91;5030433;28;72551;-45
2022/07/04 05:00:22;;;;;;;;;1.25;1.25;;;;;18.09;48.99;101555.22;5034043;28;66395;-47
2022/07/04 05:02:47;;;;;;;;;2.75;2.00;;;;;18.09;48.88;101565.81;5027904;28;53367;-46
2022/07/04 05:05:13;;;;;;;;;2.75;2.50;;;;;18.10;48.98;101570.19;5034564;28;45585;-46
2022/07/04 05:07:38;;;;;;;;;2.75;2.75;;;;;18.13;49.12;101567.38;5032538;28;45328;-47
2022/07/04 05:10:04;;;;;;;;;3.75;2.75;;;;;18.17;48.24;101555.72;5026614;28;57988;-44
2022/07/04 05:12:29;;;;;;;;;3.50;2.25;;;;;18.19;48.61;101556.50;5034790;28;45333;-45
2022/07/04 05:14:55;;;;;;;;;3.25;2.75;;;;;18.24;48.57;101567.75;5032314;28;70438;-47
2022/07/04 05:17:21;;;;;;;;;3.00;3.00;;;;;18.28;48.49;101563.19;5038749;28;47261;-46
2022/07/04 05:19:48;;;;;;;;;2.00;2.00;;;;;18.30;49.08;101562.16;5032391;28;45458;-45
2022/07/04 05:22:14;;;;;;;;;4.75;2.00;;;;;18.31;48.32;101565.66;5030801;28;45351;-46
2022/07/04 05:24:40;;;;;;;;;3.50;2.00;;;;;18.34;48.70;101565.53;5037869;28;45618;-46
2022/07/04 05:27:06;;;;;;;;;2.50;1.00;;;;;18.37;48.79;101562.75;5034567;28;46244;-46
2022/07/04 05:29:32;;;;;;;;;2.00;2.00;;;;;18.40;48.61;101567.91;5036735;28;45741;-46
2022/07/04 05:31:57;;;;;;;;;1.50;1.50;;;;;18.41;48.93;101564.31;5032678;28;46967;-47
2022/07/04 05:34:23;;;;;;;;;2.75;2.75;;;;;18.46;49.11;101564.13;5031499;28;49078;-45
2022/07/04 05:36:48;;;;;;;;;3.00;3.00;;;;;18.48;48.38;101570.19;5035711;28;46588;-46
2022/07/04 05:39:13;;;;;;;;;3.00;2.00;;;;;18.48;48.62;101564.91;5035517;28;45421;-47
2022/07/04 05:41:39;;;;;;;;;2.50;0.75;;;;;18.51;48.49;101562.97;5038854;28;45280;-49
2022/07/04 05:44:04;;;;;;;;;3.00;3.00;;;;;18.53;48.74;101566.41;5029320;28;61855;-50
2022/07/04 05:46:30;;;;;;;;;2.50;2.00;;;;;18.56;48.60;101562.75;5032549;28;56091;-47
2022/07/04 05:48:55;;;;;;;;;3.50;3.00;;;;;18.56;48.42;101560.94;5034273;28;63482;-49
2022/07/04 05:51:21;;;;;;;;;8.00;4.00;;;;;18.57;48.31;101564.47;5035063;28;45478;-47
2022/07/04 05:53:46;;;;;;;;;3.75;3.00;;;;;18.55;48.81;101564.53;5031589;28;61427;-46
2022/07/04 05:56:12;;;;;;;;;3.00;2.50;;;;;18.57;48.83;101562.69;5037509;28;75785;-48
2022/07/04 05:58:38;;;;;;;;;4.00;4.00;;;;;18.58;48.87;101574.13;5052645;28;45518;-48
2022/07/04 06:01:04;;;;;;;;;4.00;3.00;;;;;18.59;48.90;101571.44;5031922;28;45518;-46
2022/07/04 06:03:29;;;;;;;;;3.00;3.00;;;;;18.64;49.22;101568.53;5031764;28;45428;-48
2022/07/04 06:05:55;;;;;;;;;12.00;7.75;;;;;18.65;48.99;101564.13;5032860;28;70063;-48
2022/07/04 06:08:20;;;;;;;;;4.25;3.25;;;;;18.69;49.12;101569.19;5037160;28;45322;-44
2022/07/04 06:10:46;;;;;;;;;10.25;9.00;;;;;18.71;48.82;101567.31;5035822;28;45415;-47
2022/07/04 06:13:11;;;;;;;;;4.50;2.00;;;;;18.74;48.58;101561.00;5035462;28;45810;-47
2022/07/04 06:15:37;;;;;;;;;7.00;4.00;;;;;18.79;48.52;101577.56;5028441;28;46128;-45
2022/07/04 06:18:02;;;;;;;;;6.25;3.25;;;;;18.85;48.44;101576.44;5024470;28;45415;-44
2022/07/04 06:20:29;;;;;;;;;6.25;4.00;;;;;18.91;48.24;101574.34;5034759;28;45405;-48
2022/07/04 06:22:54;;;;;;;;;4.50;2.00;;;;;18.98;48.35;101572.25;5034898;28;46306;-45
2022/07/04 06:25:20;;;;;;;;;3.00;3.00;;;;;19.02;48.38;101570.31;5026354;28;46026;-50
2022/07/04 06:27:47;;;;;;;;;5.25;4.25;;;;;19.06;48.09;101574.53;5029972;28;45461;-44
2022/07/04 06:30:13;;;;;;;;;4.00;4.00;;;;;19.10;48.10;101582.25;5039014;28;45487;-45
2022/07/04 06:32:50;;;;;;;;;6.00;4.00;;;;;19.13;47.86;101573.28;5039879;28;45571;-46
2022/07/04 06:38:07;;;;;;;;;9.25;7.00;;;;;19.23;47.65;101582.53;5031519;28;45683;-46
2022/07/04 06:40:33;;;;;;;;;4.25;4.25;;;;;19.26;47.47;101579.69;5033814;28;46648;-48
2022/07/04 06:42:59;;;;;;;;;12.00;9.00;;;;;19.30;47.37;101577.75;5033090;28;45604;-48
2022/07/04 06:45:24;;;;;;;;;5.00;3.00;;;;;19.33;47.33;101572.28;5033838;28;45383;-52
2022/07/04 06:47:50;;;;;;;;;4.75;4.00;;;;;19.33;47.23;101574.94;5025673;28;45436;-50
2022/07/04 06:50:15;;;;;;;;;6.75;5.25;;;;;19.33;47.74;101570.47;5031988;28;45726;-46
2022/07/04 06:52:41;;;;;;;;;5.50;5.00;;;;;19.33;47.34;101575.78;5025987;28;45430;-50
2022/07/04 06:55:08;;;;;;;;;6.00;4.75;;;;;19.38;47.36;101574.72;5031984;28;68754;-48
2022/07/04 06:57:33;;;;;;;;;5.25;3.75;;;;;19.41;47.14;101577.22;5028406;28;45386;-50
2022/07/04 06:59:59;;;;;;;;;6.00;3.50;;;;;19.45;47.12;101576.97;5035632;28;61485;-51
2022/07/04 07:02:25;;;;;;;;;3.00;3.00;;;;;19.51;46.85;101589.06;5035584;28;45379;-48
2022/07/04 07:04:50;;;;;;;;;3.50;3.00;;;;;19.56;46.78;101587.03;5035324;28;46061;-46
2022/07/04 07:07:15;;;;;;;;;8.00;5.50;;;;;19.61;46.40;101586.81;5033256;28;68288;-45
2022/07/04 07:09:41;;;;;;;;;13.75;10.25;;;;;19.66;46.24;101590.09;5032463;28;68261;-46
2022/07/04 07:12:06;;;;;;;;;4.25;3.25;;;;;19.67;46.36;101587.38;5032013;28;66269;-45
2022/07/04 07:14:32;;;;;;;;;7.75;5.25;;;;;19.66;46.63;101590.94;5035534;28;45775;-45
2022/07/04 07:16:58;;;;;;;;;7.00;4.50;;;;;19.72;46.27;101597.75;5036170;28;45370;-46
2022/07/04 07:19:23;;;;;;;;;5.00;2.25;;;;;19.78;46.19;101597.47;5029042;28;45429;-46
2022/07/04 07:21:48;;;;;;;;;3.75;2.00;;;;;19.83;46.27;101597.22;5035189;28;64128;-51
2022/07/04 07:24:14;;;;;;;;;5.00;3.50;;;;;19.89;46.04;101597.75;5034566;28;46026;-47
2022/07/04 07:26:39;;;;;;;;;5.75;2.00;;;;;19.98;46.11;101601.72;5032665;28;46913;-46
2022/07/04 07:29:05;;;;;;;;;2.25;2.25;;;;;20.05;45.62;101599.63;5037454;28;45261;-49
2022/07/04 07:31:31;;;;;;;;;2.25;1.75;;;;;20.13;45.08;101605.38;5037787;28;45493;-52
2022/07/04 07:33:56;;;;;;;;;2.00;2.00;;;;;20.17;45.25;101596.31;5033086;28;45434;-51
2022/07/04 07:36:21;;;;;;;;;2.75;2.75;;;;;20.25;45.04;101601.19;5035215;28;46070;-50
2022/07/04 07:38:47;;;;;;;;;5.00;2.00;;;;;20.33;45.16;101598.13;5034916;28;63640;-46
2022/07/04 07:41:12;;;;;;;;;2.25;2.25;;;;;20.39;44.79;101595.97;5035069;28;70805;-47
2022/07/04 07:43:38;;;;;;;;;8.50;8.50;;;;;20.45;44.56;101593.00;5035401;28;62852;-45
2022/07/04 07:46:05;;;;;;;;;3.00;2.00;;;;;20.53;44.39;101592.56;5032187;28;67756;-45
2022/07/04 07:48:30;;;;;;;;;2.00;1.25;;;;;20.59;44.40;101591.38;5035593;28;45521;-48
2022/07/04 07:50:56;;;;;;;;;4.00;2.50;;;;;20.62;44.02;101588.59;5030458;28;45554;-48
2022/07/04 07:53:22;;;;;;;;;2.50;2.00;;;;;20.68;44.05;101582.91;5028749;28;73421;-47
2022/07/04 07:55:47;;;;;;;;;13.50;12.25;;;;;20.75;43.77;101586.97;5037133;28;45425;-48
2022/07/04 07:58:13;;;;;;;;;6.25;4.50;;;;;20.77;44.00;101586.84;5025896;28;62622;-48
2022/07/04 08:00:38;;;;;;;;;6.50;6.00;;;;;20.79;43.58;101590.31;5036451;28;45557;-46
2022/07/04 08:05:48;;;;;;;;;8.00;3.00;;;;;20.89;43.61;101587.97;5035309;28;45238;-46
2022/07/04 08:08:13;;;;;;;;;4.25;3.00;;;;;20.95;43.38;101584.97;5034347;28;47810;-47
2022/07/04 08:10:38;;;;;;;;;7.50;3.50;;;;;21.00;43.21;101577.56;5033687;28;51178;-45
2022/07/04 08:13:05;;;;;;;;;4.25;3.75;;;;;21.09;43.08;101579.72;5030707;28;45914;-47
2022/07/04 08:15:31;;;;;;;;;2.00;2.00;;;;;21.15;42.74;101582.00;5033414;28;45806;-45
2022/07/04 08:17:56;;;;;;;;;2.00;2.00;;;;;21.20;42.62;101577.28;5032672;28;45811;-45
2022/07/04 08:20:22;;;;;;;;;3.00;3.00;;;;;21.27;42.08;101582.25;5032239;28;45436;-47
2022/07/04 08:22:47;;;;;;;;;5.25;5.00;;;;;21.30;42.07;101576.72;5026460;28;65885;-45
2022/07/04 08:25:14;;;;;;;;;32.50;29.00;;;;;21.36;42.42;101579.03;5035492;28;72594;-48
2022/07/04 08:27:40;;;;;;;;;10.00;8.00;;;;;21.45;42.08;101581.16;5026988;28;45607;-46
2022/07/04 08:30:06;;;;;;;;;15.50;6.00;;;;;21.53;41.93;101578.94;5033959;28;45486;-45
2022/07/04 08:32:31;;;;;;;;;11.50;3.25;;;;;21.62;41.87;101580.19;5034693;28;46085;-46
2022/07/04 08:34:57;;;;;;;;;13.75;6.25;;;;;21.68;41.87;101579.81;5035686;28;45372;-45
2022/07/04 08:37:23;;;;;;;;;4.00;3.00;;;;;21.75;41.11;101570.50;5030652;28;45419;-45
2022/07/04 08:39:49;;;;;;;;;4.25;3.00;;;;;21.81;41.80;101571.91;5034756;28;45639;-46
2022/07/04 08:42:17;;;;;;;;;3.50;2.50;;;;;21.87;41.18;101568.03;5031722;28;70981;-46
2022/07/04 08:44:48;;;;;;;;;2.75;2.00;;;;;21.94;41.03;101558.72;5029604;28;45343;-45
2022/07/04 08:47:18;;;;;;;;;5.50;2.25;;;;;22.00;40.56;101566.31;5032864;28;45499;-50
2022/07/04 08:50:01;;;;;;;;;3.00;2.00;;;;;21.98;40.96;101558.41;5033750;28;45605;-49
2022/07/04 08:52:35;;;;;;;;;3.25;2.50;;;;;22.03;40.71;101558.16;5038796;28;74565;-45
2022/07/04 09:00:29;;;;;;;;;5.75;4.75;;;;;22.25;40.22;101552.31;5021724;28;45454;-46
2022/07/04 09:02:56;;;;;;;;;4.00;3.00;;;;;22.30;40.04;101550.25;5032254;28;45402;-46
2022/07/04 09:05:21;;;;;;;;;5.75;5.50;;;;;22.39;39.69;101543.47;5036379;28;45434;-48
2022/07/04 09:07:47;;;;;;;;;4.00;3.00;;;;;22.46;40.16;101551.94;5024521;28;69919;-45
2022/07/04 09:10:13;;;;;;;;;3.00;1.75;;;;;22.49;39.47;101546.41;5033783;28;45337;-51
2022/07/04 09:12:38;;;;;;;;;3.00;3.00;;;;;22.46;39.42;101543.94;5023186;28;65590;-50
2022/07/04 09:15:05;;;;;;;;;4.00;2.00;;;;;22.49;39.56;101546.41;5031140;28;64414;-52
2022/07/04 09:17:33;;;;;;;;;6.00;2.00;;;;;22.50;39.88;101545.44;5033359;28;45565;-52
2022/07/04 09:20:19;;;;;;;;;3.50;3.50;;;;;22.56;39.90;101547.72;5034452;28;45509;-52
2022/07/04 09:22:45;;;;;;;;;2.50;2.50;;;;;22.63;39.48;101543.72;5033957;28;47255;-51
2022/07/04 09:25:14;;;;;;;;;6.00;3.00;;;;;22.68;39.53;101546.94;5036136;28;45386;-52
2022/07/04 09:27:56;;;;;;;;;5.00;3.00;;;;;22.63;38.03;101534.81;5053150;28;45461;-52
2022/07/04 09:30:23;;;;;;;;;3.00;2.25;;;;;22.59;38.84;101538.66;5053410;28;45442;-49
2022/07/04 09:32:51;;;;;;;;;4.25;2.50;;;;;22.62;38.76;101535.78;5037854;28;45471;-48
2022/07/04 09:35:18;;;;;;;;;5.00;1.50;;;;;22.68;37.98;101536.25;5038780;28;45727;-46
2022/07/04 09:37:45;;;;;;;;;4.00;2.00;;;;;22.75;37.58;101536.69;5030476;28;45624;-47
2022/07/04 09:40:23;;;;;;;;;2.25;1.00;;;;;22.82;37.63;101532.66;5036272;28;45501;-50
2022/07/04 09:42:49;;;;;;;;;7.00;3.25;;;;;23.01;37.51;101539.47;5034298;28;45254;-46
2022/07/04 09:45:14;;;;;;;;;10.00;6.75;;;;;23.43;37.73;101534.88;5035562;28;45431;-50
2022/07/04 09:47:41;;;;;;;;;13.25;6.25;;;;;24.14;37.53;101538.00;5040101;28;46462;-48
2022/07/04 09:50:14;;;;;;;;;5.00;3.75;;;;;25.38;36.36;101536.84;5038745;28;45415;-48
2022/07/04 09:52:54;;;;;;;;;4.75;3.25;;;;;27.21;34.54;101531.13;5029418;28;45551;-47
2022/07/04 09:55:24;;;;;;;;;4.50;4.25;;;;;28.98;33.13;101535.19;5037081;28;45636;-50
2022/07/04 09:57:50;;;;;;;;;4.25;2.00;;;;;30.30;30.88;101537.13;5029231;28;45505;-46
2022/07/04 10:00:46;;;;;;;;;7.00;3.25;;;;;31.58;29.30;101541.38;5032538;28;45500;-51
2022/07/04 10:03:26;;;;;;;;;0.75;0.75;;;;;33.19;28.03;101544.09;5027255;28;46545;-52
2022/07/04 10:06:12;;;;;;;;;2.00;0.25;;;;;34.29;26.63;101539.91;5036523;28;45349;-48
2022/07/04 10:08:39;;;;;;;;;0.00;0.00;;;;;35.23;25.55;101540.59;5030521;28;45465;-45
2022/07/04 10:11:05;;;;;;;;;2.00;0.00;;;;;36.09;24.59;101545.63;5031518;28;45569;-47
2022/07/04 10:13:30;;;;;;;;;1.50;0.00;;;;;36.90;21.37;101544.63;5026411;28;46121;-47
2022/07/04 10:15:56;;;;;;;;;2.00;2.00;;;;;37.60;20.26;101537.41;5034338;28;65636;-46
2022/07/04 10:18:23;;;;;;;;;1.00;0.00;;;;;38.34;21.75;101531.25;5035903;28;45252;-47
2022/07/04 10:20:49;;;;;;;;;0.00;0.00;;;;;38.99;20.88;101525.25;5033399;28;45513;-46
2022/07/04 10:23:15;;;;;;;;;1.50;1.50;;;;;39.56;19.18;101511.97;5032491;28;45467;-50
2022/07/04 10:25:44;;;;;;;;;0.75;0.75;;;;;40.29;18.53;101521.75;5037768;28;45770;-46
2022/07/04 10:28:09;;;;;;;;;4.00;4.00;;;;;40.99;18.41;101529.97;5028020;28;45569;-49
2022/07/04 10:30:37;;;;;;;;;1.00;1.00;;;;;41.45;18.10;101524.22;5037466;28;66239;-49
2022/07/04 10:33:04;;;;;;;;;0.75;0.75;;;;;41.65;17.81;101524.00;5036873;28;46716;-50
2022/07/04 10:35:50;;;;;;;;;1.75;1.00;;;;;41.71;16.85;101525.88;5038364;28;45366;-49
2022/07/04 10:38:19;;;;;;;;;2.00;0.00;;;;;41.67;17.31;101527.41;5034080;28;45464;-53
2022/07/04 10:40:48;;;;;;;;;0.75;0.75;;;;;41.87;16.63;101521.66;5036932;28;45471;-48
2022/07/04 10:43:40;;;;;;;;;2.75;0.00;;;;;42.44;16.20;101527.63;5036031;28;45612;-52
2022/07/04 10:46:14;;;;;;;;;1.50;0.00;;;;;42.81;14.44;101534.91;5038968;28;45411;-52
2022/07/04 10:49:12;;;;;;;;;0.25;0.25;;;;;42.98;14.92;101524.06;5038359;28;45567;-52
2022/07/04 10:51:53;;;;;;;;;0.50;0.00;;;;;43.19;15.24;101520.72;5033717;28;45295;-50
2022/07/04 10:54:30;;;;;;;;;2.75;1.00;;;;;43.40;15.53;101527.56;5036863;28;46204;-51
2022/07/04 10:56:56;;;;;;;;;0.00;0.00;;;;;43.66;13.05;101524.50;5030990;28;45658;-50
2022/07/04 10:59:27;;;;;;;;;4.50;4.50;;;;;44.00;14.50;101522.72;5029653;28;45365;-50
2022/07/04 11:01:52;;;;;;;;;4.50;0.50;;;;;44.44;13.98;101513.88;5031265;28;45992;-49
2022/07/04 11:04:55;;;;;;;;;0.00;0.00;;;;;45.06;14.31;101513.00;5033704;28;46072;-52
2022/07/04 11:07:37;;;;;;;;;3.50;0.50;;;;;45.42;13.01;101522.66;5036408;28;45217;-51
2022/07/04 11:10:21;;;;;;;;;3.25;2.00;;;;;45.70;13.08;101512.47;5038115;28;45352;-51
2022/07/04 11:13:07;;;;;;;;;3.00;1.75;;;;;45.78;12.48;101514.00;5035896;28;45513;-51
2022/07/04 11:15:32;;;;;;;;;1.25;1.00;;;;;45.75;13.48;101509.78;5037457;28;46156;-52
2022/07/04 11:18:05;;;;;;;;;5.00;2.00;;;;;46.04;13.62;101509.53;5034998;28;45460;-52
2022/07/04 11:20:32;;;;;;;;;2.00;2.00;;;;;46.15;12.74;101510.53;5038481;28;45411;-49
2022/07/04 11:23:03;;;;;;;;;3.00;1.75;;;;;46.45;12.54;101509.97;5032818;28;45361;-53
2022/07/04 11:25:29;;;;;;;;;3.00;2.00;;;;;46.74;12.89;101507.72;5039044;28;46092;-51
2022/07/04 11:27:54;;;;;;;;;1.50;1.50;;;;;46.53;12.85;101509.50;5027634;28;73153;-53
2022/07/04 11:30:20;;;;;;;;;2.50;1.00;;;;;46.26;12.64;101512.28;5038417;28;58410;-52
2022/07/04 11:32:45;;;;;;;;;1.00;1.00;;;;;45.79;12.28;101504.56;5026571;28;68448;-51
2022/07/04 11:35:10;;;;;;;;;0.75;0.75;;;;;45.43;12.78;101506.88;5032968;28;68905;-52
2022/07/04 11:37:36;;;;;;;;;1.25;0.75;;;;;45.27;12.62;101498.34;5033284;28;74241;-54
2022/07/04 11:45:50;;;;;;;;;1.50;1.50;;;;;45.58;12.54;101492.41;5033735;28;45715;-47
2022/07/04 11:48:27;;;;;;;;;4.00;3.00;;;;;45.41;12.72;101485.03;5037071;28;45485;-52